»·PEaware :: JNY60 KRDD-KPDX

JNY60 :: KRDD-KPDX

FLIGHT INFORMATION

Flight Status: Arrived
Operator: Unknown
More flights by this operator :: More flights under this callsign
Pilot: Max W. (2591)
Aircraft: BOEING 737-200
(B732)
More flights by this aircraft type
Origin: KRDD Redding Mun
United States
Destination: KPDX Portland Intl
United States
More flights between these airports :: More routes between these airports
Route: KREST3 KREST OED OCITY2
File this flight plan on PilotEdge
Remarks:
Altitude:
(Current/Filed)
26,000ft
Speed:
(Current/Filed)
450kts
Departed: 04-Oct-19 04:02 PM
Arrived: 04-Oct-19 04:58 PM
Distance/Time
Traveled:
305nm/0:56
Distance/Time
To Go:
Arrived

Flight Plot

Page will automatically refresh every two minutes.

Flight plan parsing failed; only flown route is shown


Map Options




Map Legend


Flown Route
Filed Route
Departure Airport
Arrival Airport
Navaid (VOR, NDB)
Fix

Horizontal Profiles

Position Reports

Time Latitude Longitude Heading Altitude Ground
Speed
04-Oct-19 14:51 40.503546 -122.299186 314 492ft 0kts
04-Oct-19 14:52 40.503546 -122.299186 314 492ft 0kts
04-Oct-19 14:53 40.503546 -122.299186 314 492ft 0kts
04-Oct-19 14:54 40.503546 -122.299186 314 492ft 0kts
04-Oct-19 14:55 40.503546 -122.299186 314 492ft 0kts
04-Oct-19 14:56 40.503546 -122.299186 314 492ft 0kts
04-Oct-19 14:57 40.503546 -122.299186 314 492ft 0kts
04-Oct-19 14:58 40.503546 -122.299186 314 492ft 0kts
04-Oct-19 14:59 40.503546 -122.299186 314 492ft 0kts
04-Oct-19 15:00 40.503546 -122.299186 314 492ft 0kts
04-Oct-19 15:01 40.503546 -122.299186 314 492ft 0kts
04-Oct-19 15:02 40.503546 -122.299186 314 492ft 0kts
04-Oct-19 15:03 40.503546 -122.299186 314 492ft 0kts
04-Oct-19 15:04 40.503546 -122.299187 314 492ft 0kts
04-Oct-19 15:05 40.503546 -122.299187 314 492ft 0kts
04-Oct-19 15:06 40.503546 -122.299187 314 492ft 0kts
04-Oct-19 15:07 40.503546 -122.299187 314 492ft 0kts
04-Oct-19 15:08 40.503546 -122.299187 314 492ft 0kts
04-Oct-19 15:09 40.503546 -122.299187 314 492ft 0kts
04-Oct-19 15:10 40.503546 -122.299187 314 492ft 0kts
04-Oct-19 15:11 40.503546 -122.299187 314 492ft 0kts
04-Oct-19 15:12 40.503546 -122.299187 314 492ft 0kts
04-Oct-19 15:13 40.503546 -122.299187 314 492ft 0kts
04-Oct-19 15:14 40.503546 -122.299187 314 492ft 0kts
04-Oct-19 15:15 40.503546 -122.299187 314 492ft 0kts
04-Oct-19 15:16 40.503546 -122.299187 314 492ft 0kts
04-Oct-19 15:17 40.503546 -122.299187 314 492ft 0kts
04-Oct-19 15:18 40.503546 -122.299187 314 492ft 0kts
04-Oct-19 15:19 40.503546 -122.299187 314 492ft 0kts
04-Oct-19 15:20 40.503546 -122.299187 314 492ft 0kts
04-Oct-19 15:21 40.503546 -122.299187 314 492ft 0kts
04-Oct-19 15:22 40.503546 -122.299187 314 492ft 0kts
04-Oct-19 15:23 40.503546 -122.299187 314 492ft 0kts
04-Oct-19 15:24 40.503546 -122.299187 314 492ft 0kts
04-Oct-19 15:25 40.503546 -122.299187 314 492ft 0kts
04-Oct-19 15:26 40.503546 -122.299187 314 492ft 0kts
04-Oct-19 15:27 40.503546 -122.299187 314 492ft 0kts
04-Oct-19 15:28 40.503546 -122.299187 314 492ft 0kts
04-Oct-19 15:29 40.503546 -122.299187 314 492ft 0kts
04-Oct-19 15:30 40.503546 -122.299187 314 492ft 0kts
04-Oct-19 15:32 40.503546 -122.299187 314 492ft 0kts
04-Oct-19 15:33 40.503546 -122.299187 314 492ft 0kts
04-Oct-19 15:34 40.503546 -122.299187 314 492ft 0kts
04-Oct-19 15:35 40.503546 -122.299187 314 492ft 0kts
04-Oct-19 15:36 40.503546 -122.299187 314 492ft 0kts
04-Oct-19 15:37 40.503546 -122.299187 314 492ft 0kts
04-Oct-19 15:38 40.503546 -122.299187 314 492ft 0kts
04-Oct-19 15:39 40.503546 -122.299187 314 492ft 0kts
04-Oct-19 15:40 40.503546 -122.299187 314 492ft 0kts
04-Oct-19 15:41 40.503546 -122.299187 314 492ft 0kts
04-Oct-19 15:42 40.503546 -122.299187 314 492ft 0kts
04-Oct-19 15:43 40.503546 -122.299187 314 492ft 0kts
04-Oct-19 15:44 40.503546 -122.299187 314 492ft 0kts
04-Oct-19 15:45 40.503546 -122.299187 314 492ft 0kts
04-Oct-19 15:46 40.503546 -122.299187 314 492ft 0kts
04-Oct-19 15:47 40.503546 -122.299187 314 492ft 0kts
04-Oct-19 15:48 40.503546 -122.299187 314 492ft 0kts
04-Oct-19 15:49 40.503546 -122.299187 314 492ft 0kts
04-Oct-19 15:50 40.503546 -122.299187 314 492ft 0kts
04-Oct-19 15:50 40.503546 -122.299187 314 492ft 0kts
04-Oct-19 15:52 40.503546 -122.299187 314 492ft 0kts
04-Oct-19 15:53 40.503546 -122.299187 314 492ft 0kts
04-Oct-19 15:53 40.503546 -122.299189 308 492ft 0kts
04-Oct-19 15:54 40.504093 -122.299165 29 500ft 5kts
04-Oct-19 15:56 40.504188 -122.298935 137 501ft 0kts
04-Oct-19 15:56 40.503721 -122.298322 133 501ft 8kts
04-Oct-19 15:57 40.501952 -122.296023 134 501ft 0kts
04-Oct-19 15:59 40.501952 -122.296023 134 501ft 0kts
04-Oct-19 15:59 40.501952 -122.296023 134 501ft 0kts
04-Oct-19 16:00 40.501799 -122.294869 348 501ft 14kts
04-Oct-19 16:01 40.533480 -122.293951 3 2726ft 133kts
04-Oct-19 16:02 40.582113 -122.268589 6 5263ft 213kts
04-Oct-19 16:03 40.651608 -122.245468 12 8418ft 277kts
04-Oct-19 16:04 40.732385 -122.228657 348 11791ft 304kts
04-Oct-19 16:05 40.816452 -122.255218 343 15342ft 312kts
04-Oct-19 16:06 40.901428 -122.281546 345 18364ft 322kts
04-Oct-19 16:07 40.989967 -122.305408 344 21011ft 330kts
04-Oct-19 16:08 41.080145 -122.331288 341 23344ft 335kts
04-Oct-19 16:09 41.166327 -122.362182 337 25403ft 336kts
04-Oct-19 16:10 41.256689 -122.405017 334 26279ft 365kts
04-Oct-19 16:11 41.355484 -122.459522 334 26301ft 405kts
04-Oct-19 16:12 41.462203 -122.512771 337 26291ft 411kts
04-Oct-19 16:13 41.571875 -122.553724 341 26291ft 408kts
04-Oct-19 16:14 41.681765 -122.586625 342 26291ft 403kts
04-Oct-19 16:15 41.789589 -122.622487 339 26292ft 399kts
04-Oct-19 16:16 41.892164 -122.666504 336 26295ft 401kts
04-Oct-19 16:17 41.998040 -122.716676 336 26293ft 406kts
04-Oct-19 16:18 42.102819 -122.760797 339 26293ft 407kts
04-Oct-19 16:19 42.211968 -122.802467 339 26292ft 407kts
04-Oct-19 16:20 42.320340 -122.846898 338 26292ft 407kts
04-Oct-19 16:21 42.428455 -122.891841 338 26292ft 407kts
04-Oct-19 16:22 42.539343 -122.923244 357 26293ft 421kts
04-Oct-19 16:23 42.655095 -122.893752 355 26293ft 418kts
04-Oct-19 16:24 42.771766 -122.885324 356 26292ft 420kts
04-Oct-19 16:25 42.888306 -122.874828 357 26292ft 420kts
04-Oct-19 16:26 43.004654 -122.863321 357 26298ft 422kts
04-Oct-19 16:27 43.118248 -122.852062 356 26303ft 425kts
04-Oct-19 16:28 43.236809 -122.840973 356 26304ft 434kts
04-Oct-19 16:29 43.354768 -122.829729 357 24412ft 420kts
04-Oct-19 16:30 43.469757 -122.819368 357 21399ft 410kts
04-Oct-19 16:31 43.581434 -122.809253 358 18590ft 400kts
04-Oct-19 16:32 43.690543 -122.798900 359 15957ft 388kts
04-Oct-19 16:33 43.796845 -122.788146 1 13411ft 377kts
04-Oct-19 16:34 43.896120 -122.791115 346 12300ft 327kts
04-Oct-19 16:35 43.989904 -122.813876 355 14213ft 338kts
04-Oct-19 16:36 44.082614 -122.815252 353 18192ft 338kts
04-Oct-19 16:37 44.179707 -122.814732 357 19325ft 402kts
04-Oct-19 16:38 44.299925 -122.807777 357 19312ft 443kts
04-Oct-19 16:39 44.420084 -122.795550 0 19303ft 426kts
04-Oct-19 16:40 44.536987 -122.776080 2 19298ft 419kts
04-Oct-19 16:41 44.651574 -122.752494 3 19302ft 414kts
04-Oct-19 16:42 44.758975 -122.731500 1 17534ft 380kts
04-Oct-19 16:43 44.863544 -122.717792 0 14892ft 372kts
04-Oct-19 16:44 44.948879 -122.710039 0 12867ft 363kts
04-Oct-19 16:45 45.043957 -122.699973 2 11224ft 305kts
04-Oct-19 16:46 45.110763 -122.647867 44 10268ft 295kts
04-Oct-19 16:47 45.166769 -122.562606 45 8901ft 293kts
04-Oct-19 16:48 45.221971 -122.479667 44 7667ft 286kts
04-Oct-19 16:49 45.276390 -122.398508 44 6442ft 281kts
04-Oct-19 16:50 45.330527 -122.320730 29 5194ft 276kts
04-Oct-19 16:51 45.402624 -122.288062 13 4541ft 266kts
04-Oct-19 16:52 45.470042 -122.307115 327 3311ft 257kts
04-Oct-19 16:53 45.510016 -122.379085 303 2955ft 229kts
04-Oct-19 16:54 45.540289 -122.456442 294 1907ft 206kts
04-Oct-19 16:55 45.561361 -122.510356 297 927ft 142kts
04-Oct-19 16:56 45.580235 -122.558215 297 202ft 125kts
04-Oct-19 16:57 45.588291 -122.582523 203 38ft 19kts

Navigation Log

Ident Type
Flight plan parsing failed, navigation log unavailable